Time,TemperatureF,DewpointF,PressureIn,WindDirection,WindDirectionDegrees,WindSpeedMPH,WindSpeedGustMPH,Humidity,HourlyPrecipIn,Conditions,Clouds,dailyrainin,SoftwareType,DateUTC
2013-06-22 00:02:00,56.3,53.7,30.15,SW,227,0.0,0.0,91,0.00,,---,0.12,VWS V13.00,2013-06-22 07:02:00,
2013-06-22 00:07:00,56.2,53.6,30.15,SW,227,0.0,0.0,91,0.00,,---,0.00,VWS V13.00,2013-06-22 07:07:00,
2013-06-22 00:12:00,56.0,53.4,30.15,SW,227,0.0,0.0,91,0.00,,---,0.00,VWS V13.00,2013-06-22 07:12:00,
2013-06-22 00:17:00,56.0,53.4,30.15,SW,227,0.0,0.0,91,0.00,,---,0.00,VWS V13.00,2013-06-22 07:17:00,
2013-06-22 00:22:00,55.9,53.3,30.14,SW,227,0.0,0.0,91,0.00,,---,0.00,VWS V13.00,2013-06-22 07:22:00,
2013-06-22 00:27:00,55.7,53.1,30.14,SW,227,0.0,0.0,91,0.00,,---,0.00,VWS V13.00,2013-06-22 07:27:00,
2013-06-22 00:32:00,55.4,52.8,30.14,SW,227,0.0,0.0,91,0.00,,---,0.00,VWS V13.00,2013-06-22 07:32:00,
2013-06-22 00:36:00,55.4,52.8,30.14,SW,227,0.0,0.0,91,0.00,,---,0.00,VWS V13.00,2013-06-22 07:36:00,
2013-06-22 00:41:00,55.1,52.5,30.14,SW,227,0.0,0.0,91,0.00,,---,0.00,VWS V13.00,2013-06-22 07:41:00,
2013-06-22 00:46:00,55.0,52.4,30.14,SW,227,0.0,0.0,91,0.00,,---,0.00,VWS V13.00,2013-06-22 07:46:00,
2013-06-22 00:51:00,54.8,52.2,30.14,SW,227,0.0,0.0,91,0.00,,---,0.00,VWS V13.00,2013-06-22 07:51:00,
2013-06-22 00:56:00,54.7,52.4,30.14,SW,227,0.0,0.0,92,0.00,,---,0.00,VWS V13.00,2013-06-22 07:56:00,
2013-06-22 01:01:00,54.5,52.2,30.14,SW,227,0.0,0.0,92,0.00,,---,0.00,VWS V13.00,2013-06-22 08:01:00,
2013-06-22 01:06:00,54.4,52.1,30.14,SW,227,0.0,0.0,92,0.00,,---,0.00,VWS V13.00,2013-06-22 08:06:00,
2013-06-22 01:11:00,54.2,51.9,30.14,SW,227,0.0,0.0,92,0.00,,---,0.00,VWS V13.00,2013-06-22 08:11:00,
2013-06-22 01:16:00,54.1,51.8,30.14,SW,227,0.0,0.0,92,0.00,,---,0.00,VWS V13.00,2013-06-22 08:16:00,
2013-06-22 01:21:00,53.9,51.6,30.13,SW,227,0.0,0.0,92,0.00,,---,0.00,VWS V13.00,2013-06-22 08:21:00,
2013-06-22 01:26:00,53.8,51.5,30.13,SW,227,0.0,0.0,92,0.00,,---,0.00,VWS V13.00,2013-06-22 08:26:00,
2013-06-22 01:31:00,53.8,51.5,30.13,SW,227,0.0,0.0,92,0.00,,---,0.00,VWS V13.00,2013-06-22 08:31:00,
2013-06-22 01:36:00,53.6,51.3,30.13,SW,227,0.0,0.0,92,0.00,,---,0.00,VWS V13.00,2013-06-22 08:36:00,
2013-06-22 01:41:00,53.5,51.5,30.13,SW,227,0.0,0.0,93,0.00,,---,0.00,VWS V13.00,2013-06-22 08:41:00,
2013-06-22 01:46:00,53.5,51.5,30.13,SW,227,0.0,0.0,93,0.00,,---,0.00,VWS V13.00,2013-06-22 08:46:00,
2013-06-22 01:51:00,53.3,51.3,30.13,SW,227,0.0,0.0,93,0.00,,---,0.00,VWS V13.00,2013-06-22 08:51:00,
2013-06-22 01:56:00,53.2,51.2,30.13,SW,227,0.0,0.0,93,0.00,,---,0.00,VWS V13.00,2013-06-22 08:56:00,
2013-06-22 02:01:00,53.2,51.2,30.13,SW,227,0.0,0.0,93,0.00,,---,0.00,VWS V13.00,2013-06-22 09:01:00,
2013-06-22 02:06:00,53.2,51.2,30.13,SW,227,0.0,0.0,93,0.00,,---,0.00,VWS V13.00,2013-06-22 09:06:00,
2013-06-22 02:11:00,53.2,51.5,30.13,SW,227,0.0,0.0,94,0.00,,---,0.00,VWS V13.00,2013-06-22 09:11:00,
2013-06-22 02:16:00,53.2,51.5,30.13,SW,227,0.0,0.0,94,0.00,,---,0.00,VWS V13.00,2013-06-22 09:16:00,
2013-06-22 02:21:00,53.1,51.4,30.13,SW,227,0.0,0.0,94,0.00,,---,0.00,VWS V13.00,2013-06-22 09:21:00,
2013-06-22 02:26:00,53.1,51.4,30.13,SW,227,0.0,0.0,94,0.00,,---,0.00,VWS V13.00,2013-06-22 09:26:00,
2013-06-22 02:31:00,53.1,51.4,30.13,SW,227,0.0,0.0,94,0.00,,---,0.00,VWS V13.00,2013-06-22 09:31:00,
2013-06-22 02:36:00,53.1,51.4,30.13,SW,227,0.0,0.0,94,0.00,,---,0.00,VWS V13.00,2013-06-22 09:36:00,
2013-06-22 02:41:00,52.9,51.2,30.13,SW,227,0.0,0.0,94,0.00,,---,0.00,VWS V13.00,2013-06-22 09:41:00,
2013-06-22 02:46:00,52.9,51.2,30.13,SW,227,0.0,0.0,94,0.00,,---,0.00,VWS V13.00,2013-06-22 09:46:00,
2013-06-22 02:51:00,52.9,51.2,30.13,SW,227,0.0,0.0,94,0.00,,---,0.00,VWS V13.00,2013-06-22 09:51:00,
2013-06-22 02:56:00,52.9,51.2,30.13,SW,227,0.0,0.0,94,0.00,,---,0.00,VWS V13.00,2013-06-22 09:56:00,
2013-06-22 03:01:00,52.9,51.2,30.13,SW,227,0.0,0.0,94,0.00,,---,0.00,VWS V13.00,2013-06-22 10:01:00,
2013-06-22 03:06:00,52.8,51.1,30.12,SW,227,0.0,0.0,94,0.00,,---,0.00,VWS V13.00,2013-06-22 10:06:00,
2013-06-22 03:11:00,52.8,51.1,30.12,SW,227,0.0,0.0,94,0.00,,---,0.00,VWS V13.00,2013-06-22 10:11:00,
2013-06-22 03:16:00,52.8,51.1,30.12,SW,227,0.0,0.0,94,0.00,,---,0.00,VWS V13.00,2013-06-22 10:16:00,
2013-06-22 03:21:00,52.6,50.9,30.11,SW,227,0.0,0.0,94,0.00,,---,0.00,VWS V13.00,2013-06-22 10:21:00,
2013-06-22 03:26:00,52.6,51.2,30.11,SW,227,0.0,0.0,95,0.00,,---,0.00,VWS V13.00,2013-06-22 10:26:00,
2013-06-22 03:31:00,52.5,50.8,30.11,SW,227,0.0,0.0,94,0.00,,---,0.00,VWS V13.00,2013-06-22 10:31:00,
2013-06-22 03:36:00,52.3,50.6,30.11,SW,227,0.0,0.0,94,0.00,,---,0.00,VWS V13.00,2013-06-22 10:36:00,
2013-06-22 03:41:00,52.2,50.5,30.11,SW,227,0.0,0.0,94,0.00,,---,0.00,VWS V13.00,2013-06-22 10:41:00,
2013-06-22 03:46:00,52.0,50.3,30.11,SW,227,0.0,0.0,94,0.00,,---,0.00,VWS V13.00,2013-06-22 10:46:00,
2013-06-22 03:51:00,52.0,50.3,30.11,SW,227,0.0,0.0,94,0.00,,---,0.00,VWS V13.00,2013-06-22 10:51:00,
2013-06-22 03:56:00,51.9,50.2,30.11,SW,219,0.0,0.0,94,0.00,,---,0.00,VWS V13.00,2013-06-22 10:56:00,
2013-06-22 04:01:00,51.7,50.0,30.11,SW,219,0.0,0.0,94,0.00,,---,0.00,VWS V13.00,2013-06-22 11:01:00,
2013-06-22 04:06:00,51.6,49.9,30.10,SW,227,0.0,0.0,94,0.00,,---,0.00,VWS V13.00,2013-06-22 11:06:00,
2013-06-22 04:11:00,51.4,49.7,30.10,SW,227,0.0,0.0,94,0.00,,---,0.00,VWS V13.00,2013-06-22 11:11:00,
2013-06-22 04:16:00,51.3,49.6,30.10,SW,227,0.0,0.0,94,0.00,,---,0.00,VWS V13.00,2013-06-22 11:16:00,
2013-06-22 04:21:00,51.3,49.6,30.10,SW,227,0.0,0.0,94,0.00,,---,0.00,VWS V13.00,2013-06-22 11:21:00,
2013-06-22 04:26:00,51.1,49.4,30.10,SW,227,0.0,0.0,94,0.00,,---,0.00,VWS V13.00,2013-06-22 11:26:00,
2013-06-22 04:31:00,51.0,49.3,30.10,SW,227,0.0,0.0,94,0.00,,---,0.00,VWS V13.00,2013-06-22 11:31:00,
2013-06-22 04:36:00,50.8,49.1,30.10,SSE,154,0.0,0.0,94,0.00,,---,0.00,VWS V13.00,2013-06-22 11:36:00,
2013-06-22 04:41:00,50.8,49.1,30.10,SSE,154,0.0,0.0,94,0.00,,---,0.00,VWS V13.00,2013-06-22 11:41:00,
2013-06-22 04:46:00,50.7,49.0,30.10,WNW,282,0.0,0.0,94,0.00,,---,0.00,VWS V13.00,2013-06-22 11:46:00,
2013-06-22 04:51:00,50.5,48.8,30.10,SSW,210,0.0,0.0,94,0.00,,---,0.00,VWS V13.00,2013-06-22 11:51:00,
2013-06-22 04:56:00,50.4,48.7,30.10,WSW,253,0.0,0.0,94,0.00,,---,0.00,VWS V13.00,2013-06-22 11:56:00,
2013-06-22 05:01:00,50.4,48.7,30.10,NW,311,0.0,0.0,94,0.00,,---,0.00,VWS V13.00,2013-06-22 12:01:00,
2013-06-22 05:06:00,50.2,48.5,30.10,NW,311,0.0,0.0,94,0.00,,---,0.00,VWS V13.00,2013-06-22 12:06:00,
2013-06-22 05:11:00,50.1,48.4,30.10,NW,319,0.0,0.0,94,0.00,,---,0.00,VWS V13.00,2013-06-22 12:11:00,
2013-06-22 05:16:00,50.1,48.7,30.10,NW,319,0.0,0.0,95,0.00,,---,0.00,VWS V13.00,2013-06-22 12:16:00,
2013-06-22 05:21:00,49.9,48.5,30.10,NW,319,0.0,0.0,95,0.00,,---,0.00,VWS V13.00,2013-06-22 12:21:00,
2013-06-22 05:26:00,49.9,48.5,30.10,NW,319,0.0,0.0,95,0.00,,---,0.00,VWS V13.00,2013-06-22 12:26:00,
2013-06-22 05:31:00,49.8,48.4,30.10,NW,319,0.0,0.0,95,0.00,,---,0.00,VWS V13.00,2013-06-22 12:31:00,
2013-06-22 05:36:00,49.8,48.4,30.10,NW,319,0.0,0.0,95,0.00,,---,0.00,VWS V13.00,2013-06-22 12:36:00,
2013-06-22 05:41:00,49.6,48.2,30.10,NW,319,0.0,0.0,95,0.00,,---,0.00,VWS V13.00,2013-06-22 12:41:00,
2013-06-22 05:46:00,49.5,48.1,30.10,NW,319,0.0,0.0,95,0.00,,---,0.00,VWS V13.00,2013-06-22 12:46:00,
2013-06-22 05:51:00,49.5,48.1,30.10,NW,319,0.0,0.0,95,0.00,,---,0.00,VWS V13.00,2013-06-22 12:51:00,
2013-06-22 05:56:00,49.4,48.0,30.10,NW,319,0.0,0.0,95,0.00,,---,0.00,VWS V13.00,2013-06-22 12:56:00,
2013-06-22 06:01:00,49.4,48.0,30.10,NW,319,0.0,0.0,95,0.00,,---,0.00,VWS V13.00,2013-06-22 13:01:00,
2013-06-22 06:06:00,49.4,48.0,30.10,NW,319,0.0,0.0,95,0.00,,---,0.00,VWS V13.00,2013-06-22 13:06:00,
2013-06-22 06:11:00,49.2,47.8,30.10,NW,319,0.0,0.0,95,0.00,,---,0.00,VWS V13.00,2013-06-22 13:11:00,
2013-06-22 06:16:00,49.2,47.8,30.10,NW,319,0.0,0.0,95,0.00,,---,0.00,VWS V13.00,2013-06-22 13:16:00,
2013-06-22 06:21:00,49.2,47.8,30.10,NW,319,0.0,0.0,95,0.00,,---,0.00,VWS V13.00,2013-06-22 13:21:00,
2013-06-22 06:26:00,49.2,47.8,30.10,NW,319,0.0,0.0,95,0.00,,---,0.00,VWS V13.00,2013-06-22 13:26:00,
2013-06-22 06:31:00,49.2,47.8,30.10,NW,319,0.0,0.0,95,0.00,,---,0.00,VWS V13.00,2013-06-22 13:31:00,
2013-06-22 06:36:00,49.2,47.8,30.10,NW,319,0.0,0.0,95,0.00,,---,0.00,VWS V13.00,2013-06-22 13:36:00,
2013-06-22 06:41:00,49.4,48.3,30.10,NW,319,0.0,0.0,96,0.00,,---,0.00,VWS V13.00,2013-06-22 13:41:00,
2013-06-22 06:46:00,49.4,48.3,30.10,NW,319,0.0,0.0,96,0.00,,---,0.00,VWS V13.00,2013-06-22 13:46:00,
2013-06-22 06:51:00,49.6,48.5,30.10,NW,319,0.0,0.0,96,0.00,,---,0.00,VWS V13.00,2013-06-22 13:51:00,
2013-06-22 06:56:00,49.8,48.7,30.10,NW,319,0.0,0.0,96,0.00,,---,0.00,VWS V13.00,2013-06-22 13:56:00,
2013-06-22 07:01:00,49.9,48.8,30.10,NW,319,0.0,0.0,96,0.00,,---,0.00,VWS V13.00,2013-06-22 14:01:00,
2013-06-22 07:06:00,49.9,48.8,30.10,NW,319,0.0,0.0,96,0.00,,---,0.00,VWS V13.00,2013-06-22 14:06:00,
2013-06-22 07:11:00,50.1,49.0,30.10,NW,319,0.0,0.0,96,0.00,,---,0.00,VWS V13.00,2013-06-22 14:11:00,
2013-06-22 07:16:00,50.2,49.1,30.10,NW,319,0.0,0.0,96,0.00,,---,0.00,VWS V13.00,2013-06-22 14:16:00,
2013-06-22 07:21:00,50.4,49.3,30.10,NW,319,0.0,0.0,96,0.00,,---,0.00,VWS V13.00,2013-06-22 14:21:00,
2013-06-22 07:26:00,50.5,49.4,30.10,NW,319,0.0,0.0,96,0.00,,---,0.00,VWS V13.00,2013-06-22 14:26:00,
2013-06-22 07:31:00,50.8,49.7,30.10,NW,319,0.0,0.0,96,0.00,,---,0.00,VWS V13.00,2013-06-22 14:31:00,
2013-06-22 07:36:00,50.8,49.7,30.09,NW,319,0.0,0.0,96,0.00,,---,0.00,VWS V13.00,2013-06-22 14:36:00,
2013-06-22 07:41:00,51.1,50.0,30.09,NW,319,0.0,0.0,96,0.00,,---,0.00,VWS V13.00,2013-06-22 14:41:00,
2013-06-22 07:46:00,51.3,50.2,30.09,NW,319,0.0,0.0,96,0.00,,---,0.00,VWS V13.00,2013-06-22 14:46:00,
2013-06-22 07:51:00,51.7,50.9,30.09,NW,319,0.0,0.0,97,0.00,,---,0.00,VWS V13.00,2013-06-22 14:51:00,
2013-06-22 07:56:00,52.3,51.5,30.09,NW,319,0.0,0.0,97,0.00,,---,0.00,VWS V13.00,2013-06-22 14:56:00,
2013-06-22 08:01:00,52.8,52.0,30.09,NW,319,0.0,0.0,97,0.00,,---,0.00,VWS V13.00,2013-06-22 15:01:00,
2013-06-22 08:06:00,53.5,52.7,30.08,NW,319,0.0,0.0,97,0.00,,---,0.00,VWS V13.00,2013-06-22 15:06:00,
2013-06-22 08:11:00,53.9,53.1,30.08,NW,319,0.0,0.0,97,0.00,,---,0.00,VWS V13.00,2013-06-22 15:11:00,
2013-06-22 08:16:00,54.4,53.6,30.08,NW,319,0.0,0.0,97,0.00,,---,0.00,VWS V13.00,2013-06-22 15:16:00,
2013-06-22 08:21:00,55.0,54.2,30.08,NW,319,0.0,0.0,97,0.00,,---,0.00,VWS V13.00,2013-06-22 15:21:00,
2013-06-22 08:26:00,55.3,54.5,30.08,NW,319,0.0,0.0,97,0.00,,---,0.00,VWS V13.00,2013-06-22 15:26:00,
2013-06-22 08:31:00,55.6,54.5,30.08,NW,319,0.0,0.0,96,0.00,,---,0.00,VWS V13.00,2013-06-22 15:31:00,
2013-06-22 08:36:00,56.0,54.9,30.08,NW,319,0.0,0.0,96,0.00,,---,0.00,VWS V13.00,2013-06-22 15:36:00,
2013-06-22 08:41:00,56.3,55.2,30.08,NW,319,0.0,0.0,96,0.00,,---,0.00,VWS V13.00,2013-06-22 15:41:00,
2013-06-22 08:46:00,57.2,55.8,30.08,NW,319,0.0,0.0,95,0.00,,---,0.00,VWS V13.00,2013-06-22 15:46:00,
2013-06-22 08:51:00,57.6,55.6,30.07,NW,319,0.0,0.0,93,0.00,,---,0.00,VWS V13.00,2013-06-22 15:51:00,
2013-06-22 08:56:00,58.0,54.8,30.07,NW,319,0.0,0.0,89,0.00,,---,0.00,VWS V13.00,2013-06-22 15:56:00,
2013-06-22 09:01:00,58.9,55.4,30.07,NW,319,0.0,0.0,88,0.00,,---,0.00,VWS V13.00,2013-06-22 16:01:00,
2013-06-22 09:06:00,59.5,55.0,30.07,NW,319,0.0,0.0,85,0.00,,---,0.00,VWS V13.00,2013-06-22 16:06:00,
2013-06-22 09:11:00,59.9,54.4,30.07,NW,319,0.0,0.0,82,0.00,,---,0.00,VWS V13.00,2013-06-22 16:11:00,
2013-06-22 09:16:00,60.5,54.7,30.07,NW,319,0.0,0.0,81,0.00,,---,0.00,VWS V13.00,2013-06-22 16:16:00,
2013-06-22 09:21:00,61.2,54.6,30.07,NW,319,0.0,0.0,79,0.00,,---,0.00,VWS V13.00,2013-06-22 16:21:00,
2013-06-22 09:26:00,61.8,55.2,30.07,NW,319,0.0,0.0,79,0.00,,---,0.00,VWS V13.00,2013-06-22 16:26:00,
2013-06-22 09:31:00,62.4,56.2,30.07,NW,319,0.0,0.0,80,0.00,,---,0.00,VWS V13.00,2013-06-22 16:31:00,
2013-06-22 09:36:00,63.1,56.1,30.06,NNW,329,0.0,0.0,78,0.00,,---,0.00,VWS V13.00,2013-06-22 16:36:00,
2013-06-22 09:41:00,63.7,56.7,30.06,NNW,329,0.0,0.0,78,0.00,,---,0.00,VWS V13.00,2013-06-22 16:41:00,
2013-06-22 09:46:00,63.5,56.5,30.06,NW,320,0.0,0.0,78,0.00,,---,0.00,VWS V13.00,2013-06-22 16:46:00,
2013-06-22 09:51:00,63.7,54.9,30.06,ENE,62,0.0,3.0,73,0.00,,---,0.00,VWS V13.00,2013-06-22 16:51:00,
2013-06-22 09:56:00,63.7,55.6,30.06,ENE,62,0.0,3.0,75,0.00,,---,0.00,VWS V13.00,2013-06-22 16:56:00,
2013-06-22 10:01:00,64.0,55.9,30.06,ENE,62,0.0,3.0,75,0.00,,---,0.00,VWS V13.00,2013-06-22 17:01:00,
2013-06-22 10:06:00,64.3,55.5,30.06,ESE,113,0.0,3.0,73,0.00,,---,0.00,VWS V13.00,2013-06-22 17:06:00,
2013-06-22 10:11:00,64.7,55.9,30.06,ESE,113,0.0,0.0,73,0.00,,---,0.00,VWS V13.00,2013-06-22 17:11:00,
2013-06-22 10:16:00,64.8,55.6,30.06,ESE,113,0.0,0.0,72,0.00,,---,0.00,VWS V13.00,2013-06-22 17:16:00,
2013-06-22 10:21:00,65.6,55.2,30.05,ESE,113,0.0,0.0,69,0.00,,---,0.00,VWS V13.00,2013-06-22 17:21:00,
2013-06-22 10:26:00,65.5,54.7,30.05,ESE,117,0.0,1.0,68,0.00,,---,0.00,VWS V13.00,2013-06-22 17:26:00,
2013-06-22 10:31:00,65.3,55.7,30.05,East,86,0.0,2.0,71,0.00,,---,0.00,VWS V13.00,2013-06-22 17:31:00,
2013-06-22 10:36:00,66.1,54.4,30.04,East,86,0.0,2.0,66,0.00,,---,0.00,VWS V13.00,2013-06-22 17:36:00,
2013-06-22 10:41:00,65.6,53.1,30.04,ENE,69,0.0,2.0,64,0.00,,---,0.00,VWS V13.00,2013-06-22 17:41:00,
2013-06-22 10:46:00,65.5,53.8,30.04,NE,51,0.0,2.0,66,0.00,,---,0.00,VWS V13.00,2013-06-22 17:46:00,
2013-06-22 10:51:00,66.0,53.9,30.04,NE,51,0.0,2.0,65,0.00,,---,0.00,VWS V13.00,2013-06-22 17:51:00,
2013-06-22 10:56:00,66.9,56.0,30.04,NE,51,0.0,2.0,68,0.00,,---,0.00,VWS V13.00,2013-06-22 17:56:00,
2013-06-22 11:01:00,66.4,54.3,30.04,ENE,75,0.0,2.0,65,0.00,,---,0.00,VWS V13.00,2013-06-22 18:01:00,
2013-06-22 11:06:00,66.9,55.6,30.03,ENE,75,0.0,2.0,67,0.00,,---,0.00,VWS V13.00,2013-06-22 18:06:00,
2013-06-22 11:11:00,67.9,56.1,30.03,NNW,346,0.0,0.0,66,0.00,,---,0.00,VWS V13.00,2013-06-22 18:11:00,
2013-06-22 11:16:00,68.1,53.7,30.03,NNW,330,0.0,1.0,60,0.00,,---,0.00,VWS V13.00,2013-06-22 18:16:00,
2013-06-22 11:21:00,68.6,56.4,30.03,NNW,342,0.0,1.0,65,0.00,,---,0.00,VWS V13.00,2013-06-22 18:21:00,
2013-06-22 11:26:00,69.1,54.7,30.03,NNE,20,0.0,1.0,60,0.00,,---,0.00,VWS V13.00,2013-06-22 18:26:00,
2013-06-22 11:31:00,67.9,52.1,30.03,East,82,0.0,1.0,57,0.00,,---,0.00,VWS V13.00,2013-06-22 18:31:00,
2013-06-22 11:36:00,67.8,50.1,30.03,ENE,62,0.0,2.0,53,0.00,,---,0.00,VWS V13.00,2013-06-22 18:36:00,
2013-06-22 11:41:00,67.9,52.1,30.03,ESE,120,0.0,1.0,57,0.00,,---,0.00,VWS V13.00,2013-06-22 18:41:00,
2013-06-22 11:46:00,69.3,54.4,30.03,North,350,0.0,3.0,59,0.00,,---,0.00,VWS V13.00,2013-06-22 18:46:00,
2013-06-22 11:51:00,69.6,53.7,30.02,West,278,0.0,3.0,57,0.00,,---,0.00,VWS V13.00,2013-06-22 18:51:00,
2013-06-22 11:56:00,69.8,53.4,30.02,WSW,253,0.0,3.0,56,0.00,,---,0.00,VWS V13.00,2013-06-22 18:56:00,
2013-06-22 12:01:00,70.6,57.8,30.02,East,95,0.0,3.0,64,0.00,,---,0.00,VWS V13.00,2013-06-22 19:01:00,
2013-06-22 12:06:00,69.6,52.2,30.01,East,89,0.0,3.0,54,0.00,,---,0.00,VWS V13.00,2013-06-22 19:06:00,
2013-06-22 12:11:00,69.8,53.4,30.01,NNW,336,0.0,2.0,56,0.00,,---,0.00,VWS V13.00,2013-06-22 19:11:00,
2013-06-22 12:16:00,71.5,57.8,30.01,NNW,336,0.0,2.0,62,0.00,,---,0.00,VWS V13.00,2013-06-22 19:16:00,
2013-06-22 12:21:00,70.3,53.4,30.01,SSW,196,0.0,2.0,55,0.00,,---,0.00,VWS V13.00,2013-06-22 19:21:00,
2013-06-22 12:26:00,71.3,59.8,30.01,SSW,196,0.0,2.0,67,0.00,,---,0.00,VWS V13.00,2013-06-22 19:26:00,
2013-06-22 12:31:00,70.6,53.7,30.01,West,272,0.0,2.0,55,0.00,,---,0.00,VWS V13.00,2013-06-22 19:31:00,
2013-06-22 12:36:00,70.3,55.8,30.00,NNW,346,0.0,4.0,60,0.00,,---,0.00,VWS V13.00,2013-06-22 19:36:00,
2013-06-22 12:41:00,70.4,55.4,30.00,North,0,0.0,0.0,59,0.00,,---,0.00,VWS V13.00,2013-06-22 19:41:00,
2013-06-22 12:46:00,71.3,55.8,30.00,North,0,0.0,1.0,58,0.00,,---,0.00,VWS V13.00,2013-06-22 19:46:00,
2013-06-22 12:51:00,71.5,53.5,30.00,North,0,0.0,3.0,53,0.00,,---,0.00,VWS V13.00,2013-06-22 19:51:00,
2013-06-22 12:56:00,70.1,53.7,30.00,East,96,0.0,3.0,56,0.00,,---,0.00,VWS V13.00,2013-06-22 19:56:00,
2013-06-22 13:01:00,70.6,54.2,30.00,ENE,65,0.0,3.0,56,0.00,,---,0.00,VWS V13.00,2013-06-22 20:01:00,
2013-06-22 13:06:00,70.6,53.2,30.00,North,0,0.0,3.0,54,0.00,,---,0.00,VWS V13.00,2013-06-22 20:06:00,
2013-06-22 13:11:00,70.8,54.3,30.00,NE,51,0.0,0.0,56,0.00,,---,0.00,VWS V13.00,2013-06-22 20:11:00,
2013-06-22 13:16:00,72.1,55.6,30.00,North,0,0.0,1.0,56,0.00,,---,0.00,VWS V13.00,2013-06-22 20:16:00,
2013-06-22 13:21:00,72.7,55.6,29.99,NW,304,0.0,1.0,55,0.00,,---,0.00,VWS V13.00,2013-06-22 20:21:00,
2013-06-22 13:26:00,72.8,55.7,29.99,ENE,61,0.0,5.0,55,0.00,,---,0.00,VWS V13.00,2013-06-22 20:26:00,
2013-06-22 13:31:00,73.0,55.4,29.99,NW,309,0.0,5.0,54,0.00,,---,0.00,VWS V13.00,2013-06-22 20:31:00,
2013-06-22 13:36:00,74.0,56.8,29.99,North,353,0.0,5.0,55,0.00,,---,0.00,VWS V13.00,2013-06-22 20:36:00,
2013-06-22 13:41:00,73.9,55.2,29.99,NNW,340,0.0,1.0,52,0.00,,---,0.00,VWS V13.00,2013-06-22 20:41:00,
2013-06-22 13:46:00,72.7,54.1,29.99,North,0,0.0,2.0,52,0.00,,---,0.00,VWS V13.00,2013-06-22 20:46:00,
2013-06-22 13:51:00,73.0,56.9,29.98,NE,47,1.0,2.0,57,0.00,,---,0.00,VWS V13.00,2013-06-22 20:51:00,
2013-06-22 13:56:00,73.2,52.9,29.98,South,184,0.0,2.0,49,0.00,,---,0.00,VWS V13.00,2013-06-22 20:56:00,
2013-06-22 14:01:00,72.5,53.4,29.98,SW,222,0.0,4.0,51,0.00,,---,0.00,VWS V13.00,2013-06-22 21:01:00,
2013-06-22 14:06:00,72.7,54.1,29.98,SW,217,0.0,4.0,52,0.00,,---,0.00,VWS V13.00,2013-06-22 21:06:00,
2013-06-22 14:11:00,74.2,56.5,29.98,SSE,161,0.0,0.0,54,0.00,,---,0.00,VWS V13.00,2013-06-22 21:11:00,
2013-06-22 14:16:00,74.7,58.0,29.98,North,349,0.0,1.0,56,0.00,,---,0.00,VWS V13.00,2013-06-22 21:16:00,
2013-06-22 14:21:00,75.1,56.3,29.97,NNW,340,0.0,1.0,52,0.00,,---,0.00,VWS V13.00,2013-06-22 21:21:00,
2013-06-22 14:26:00,74.7,57.5,29.97,NNW,330,0.0,1.0,55,0.00,,---,0.00,VWS V13.00,2013-06-22 21:26:00,
2013-06-22 14:31:00,74.9,56.6,29.97,NNW,330,0.0,1.0,53,0.00,,---,0.00,VWS V13.00,2013-06-22 21:31:00,
2013-06-22 14:36:00,74.6,55.8,29.96,West,280,1.0,5.0,52,0.00,,---,0.00,VWS V13.00,2013-06-22 21:36:00,
2013-06-22 14:41:00,74.9,55.6,29.96,NW,312,0.0,0.0,51,0.00,,---,0.00,VWS V13.00,2013-06-22 21:41:00,
2013-06-22 14:46:00,75.1,57.3,29.96,NE,44,0.0,2.0,54,0.00,,---,0.00,VWS V13.00,2013-06-22 21:46:00,
2013-06-22 14:51:00,75.1,57.8,29.96,NE,48,0.0,2.0,55,0.00,,---,0.00,VWS V13.00,2013-06-22 21:51:00,
2013-06-22 14:56:00,75.6,56.2,29.96,WNW,285,0.0,2.0,51,0.00,,---,0.00,VWS V13.00,2013-06-22 21:56:00,
2013-06-22 15:01:00,76.1,56.7,29.96,East,99,0.0,2.0,51,0.00,,---,0.00,VWS V13.00,2013-06-22 22:01:00,
2013-06-22 15:06:00,77.2,57.1,29.95,NE,41,0.0,2.0,50,0.00,,---,0.00,VWS V13.00,2013-06-22 22:06:00,
2013-06-22 15:11:00,77.0,57.0,29.95,NE,41,0.0,0.0,50,0.00,,---,0.00,VWS V13.00,2013-06-22 22:11:00,
2013-06-22 15:16:00,76.1,57.2,29.95,NE,47,0.0,0.0,52,0.00,,---,0.00,VWS V13.00,2013-06-22 22:16:00,
2013-06-22 15:21:00,76.5,57.0,29.95,NE,37,0.0,1.0,51,0.00,,---,0.00,VWS V13.00,2013-06-22 22:21:00,
2013-06-22 15:26:00,76.1,54.4,29.95,NNE,23,1.0,1.0,47,0.00,,---,0.00,VWS V13.00,2013-06-22 22:26:00,
2013-06-22 15:31:00,76.1,56.1,29.95,NNE,20,0.0,1.0,50,0.00,,---,0.00,VWS V13.00,2013-06-22 22:31:00,
2013-06-22 15:36:00,75.6,54.5,29.94,NNW,337,0.0,1.0,48,0.00,,---,0.00,VWS V13.00,2013-06-22 22:36:00,
2013-06-22 15:41:00,75.6,56.8,29.94,SE,144,0.0,1.0,52,0.00,,---,0.00,VWS V13.00,2013-06-22 22:41:00,
2013-06-22 15:46:00,76.7,59.3,29.94,SE,136,0.0,1.0,55,0.00,,---,0.00,VWS V13.00,2013-06-22 22:46:00,
2013-06-22 15:51:00,76.5,59.2,29.94,NW,315,0.0,1.0,55,0.00,,---,0.00,VWS V13.00,2013-06-22 22:51:00,
2013-06-22 15:56:00,76.0,55.5,29.94,NW,318,0.0,1.0,49,0.00,,---,0.00,VWS V13.00,2013-06-22 22:56:00,
2013-06-22 16:01:00,75.3,54.8,29.94,NW,318,0.0,1.0,49,0.00,,---,0.00,VWS V13.00,2013-06-22 23:01:00,
2013-06-22 16:06:00,74.9,57.2,29.94,NW,318,0.0,1.0,54,0.00,,---,0.00,VWS V13.00,2013-06-22 23:06:00,
2013-06-22 16:11:00,75.3,57.5,29.94,North,357,0.0,0.0,54,0.00,,---,0.00,VWS V13.00,2013-06-22 23:11:00,
2013-06-22 16:16:00,75.8,55.3,29.94,North,6,0.0,2.0,49,0.00,,---,0.00,VWS V13.00,2013-06-22 23:16:00,
2013-06-22 16:21:00,76.0,56.6,29.93,NE,55,0.0,3.0,51,0.00,,---,0.00,VWS V13.00,2013-06-22 23:21:00,
2013-06-22 16:26:00,76.0,56.0,29.93,ENE,58,0.0,3.0,50,0.00,,---,0.00,VWS V13.00,2013-06-22 23:26:00,
2013-06-22 16:31:00,76.3,56.3,29.93,ENE,61,0.0,3.0,50,0.00,,---,0.00,VWS V13.00,2013-06-22 23:31:00,
2013-06-22 16:36:00,76.3,55.8,29.93,NE,44,0.0,3.0,49,0.00,,---,0.00,VWS V13.00,2013-06-22 23:36:00,
2013-06-22 16:41:00,76.5,54.8,29.93,North,357,0.0,1.0,47,0.00,,---,0.00,VWS V13.00,2013-06-22 23:41:00,
2013-06-22 16:46:00,76.7,57.8,29.93,NNW,329,0.0,1.0,52,0.00,,---,0.00,VWS V13.00,2013-06-22 23:46:00,
2013-06-22 16:51:00,76.5,54.8,29.92,SE,134,0.0,1.0,47,0.00,,---,0.00,VWS V13.00,2013-06-22 23:51:00,
2013-06-22 16:56:00,76.5,54.2,29.92,East,88,0.0,2.0,46,0.00,,---,0.00,VWS V13.00,2013-06-22 23:56:00,
2013-06-22 17:01:00,76.7,56.7,29.92,ENE,78,0.0,2.0,50,0.00,,---,0.00,VWS V13.00,2013-06-23 00:01:00,
2013-06-22 17:06:00,77.0,57.0,29.92,NE,48,0.0,2.0,50,0.00,,---,0.00,VWS V13.00,2013-06-23 00:06:00,
2013-06-22 17:11:00,77.7,55.3,29.92,NE,41,0.0,0.0,46,0.00,,---,0.00,VWS V13.00,2013-06-23 00:11:00,
2013-06-22 17:16:00,77.9,54.9,29.92,NE,37,0.0,1.0,45,0.00,,---,0.00,VWS V13.00,2013-06-23 00:16:00,
2013-06-22 17:21:00,77.9,55.5,29.92,NNE,27,0.0,1.0,46,0.00,,---,0.00,VWS V13.00,2013-06-23 00:21:00,
2013-06-22 17:26:00,77.6,55.8,29.92,NNE,27,0.0,1.0,47,0.00,,---,0.00,VWS V13.00,2013-06-23 00:26:00,
2013-06-22 17:31:00,77.6,54.6,29.92,NNE,27,0.0,1.0,45,0.00,,---,0.00,VWS V13.00,2013-06-23 00:31:00,
2013-06-22 17:36:00,77.4,55.0,29.91,NNE,27,0.0,1.0,46,0.00,,---,0.00,VWS V13.00,2013-06-23 00:36:00,
2013-06-22 17:41:00,77.2,54.8,29.91,NNE,27,0.0,0.0,46,0.00,,---,0.00,VWS V13.00,2013-06-23 00:41:00,
2013-06-22 17:46:00,77.2,55.4,29.91,WSW,248,0.0,0.0,47,0.00,,---,0.00,VWS V13.00,2013-06-23 00:46:00,
2013-06-22 17:51:00,77.4,55.0,29.90,NW,305,0.0,0.0,46,0.00,,---,0.00,VWS V13.00,2013-06-23 00:51:00,
2013-06-22 17:56:00,77.2,56.6,29.90,NE,34,0.0,1.0,49,0.00,,---,0.00,VWS V13.00,2013-06-23 00:56:00,
2013-06-22 18:01:00,77.0,55.2,29.90,NE,34,0.0,1.0,47,0.00,,---,0.00,VWS V13.00,2013-06-23 01:01:00,
2013-06-22 18:06:00,76.7,55.5,29.89,NE,34,0.0,1.0,48,0.00,,---,0.00,VWS V13.00,2013-06-23 01:06:00,
2013-06-22 18:11:00,76.5,55.4,29.89,NE,34,0.0,0.0,48,0.00,,---,0.00,VWS V13.00,2013-06-23 01:11:00,
2013-06-22 18:16:00,76.0,54.9,29.89,NE,37,0.0,0.0,48,0.00,,---,0.00,VWS V13.00,2013-06-23 01:16:00,
2013-06-22 18:21:00,75.8,54.7,29.89,NE,37,0.0,0.0,48,0.00,,---,0.00,VWS V13.00,2013-06-23 01:21:00,
2013-06-22 18:25:00,75.8,55.9,29.89,NE,37,0.0,0.0,50,0.00,,---,0.00,VWS V13.00,2013-06-23 01:25:00,
2013-06-22 18:30:00,75.4,58.1,29.89,NE,37,0.0,0.0,55,0.00,,---,0.00,VWS V13.00,2013-06-23 01:30:00,
2013-06-22 18:35:00,75.3,58.5,29.89,NE,37,0.0,0.0,56,0.00,,---,0.00,VWS V13.00,2013-06-23 01:35:00,
2013-06-22 18:40:00,75.1,58.8,29.89,NE,37,0.0,0.0,57,0.00,,---,0.00,VWS V13.00,2013-06-23 01:40:00,
2013-06-22 18:45:00,75.1,58.8,29.89,NE,37,0.0,0.0,57,0.00,,---,0.00,VWS V13.00,2013-06-23 01:45:00,
2013-06-22 18:50:00,75.1,58.8,29.89,NE,37,0.0,0.0,57,0.00,,---,0.00,VWS V13.00,2013-06-23 01:50:00,
2013-06-22 18:55:00,75.1,56.8,29.89,NE,37,0.0,0.0,53,0.00,,---,0.00,VWS V13.00,2013-06-23 01:55:00,
2013-06-22 19:00:00,75.3,55.4,29.89,NE,37,0.0,0.0,50,0.00,,---,0.00,VWS V13.00,2013-06-23 02:00:00,
2013-06-22 19:05:00,75.4,55.5,29.89,NE,37,0.0,0.0,50,0.00,,---,0.00,VWS V13.00,2013-06-23 02:05:00,
2013-06-22 19:10:00,75.6,58.3,29.89,NE,37,0.0,0.0,55,0.00,,---,0.00,VWS V13.00,2013-06-23 02:10:00,
2013-06-22 19:15:00,75.4,59.6,29.89,NE,37,0.0,0.0,58,0.00,,---,0.00,VWS V13.00,2013-06-23 02:15:00,
2013-06-22 19:20:00,75.3,58.5,29.88,NE,37,0.0,0.0,56,0.00,,---,0.00,VWS V13.00,2013-06-23 02:20:00,
2013-06-22 19:25:00,74.9,58.2,29.88,NE,37,0.0,0.0,56,0.00,,---,0.00,VWS V13.00,2013-06-23 02:25:00,
2013-06-22 19:30:00,74.4,58.2,29.88,NE,34,0.0,0.0,57,0.00,,---,0.00,VWS V13.00,2013-06-23 02:30:00,
2013-06-22 19:35:00,73.9,57.7,29.88,NE,34,0.0,0.0,57,0.00,,---,0.00,VWS V13.00,2013-06-23 02:35:00,
2013-06-22 19:40:00,73.5,57.8,29.88,NE,34,0.0,0.0,58,0.00,,---,0.00,VWS V13.00,2013-06-23 02:40:00,
2013-06-22 19:45:00,73.0,57.8,29.88,NE,34,0.0,0.0,59,0.00,,---,0.00,VWS V13.00,2013-06-23 02:45:00,
2013-06-22 19:50:00,72.5,57.8,29.88,NE,34,0.0,0.0,60,0.00,,---,0.00,VWS V13.00,2013-06-23 02:50:00,
2013-06-22 19:55:00,72.0,57.4,29.88,NE,34,0.0,0.0,60,0.00,,---,0.00,VWS V13.00,2013-06-23 02:55:00,
2013-06-22 20:00:00,71.5,57.8,29.88,NE,34,0.0,0.0,62,0.00,,---,0.00,VWS V13.00,2013-06-23 03:00:00,
2013-06-22 20:05:00,71.1,58.3,29.89,NE,34,0.0,0.0,64,0.00,,---,0.00,VWS V13.00,2013-06-23 03:05:00,
2013-06-22 20:10:00,70.8,58.5,29.89,NE,34,0.0,0.0,65,0.00,,---,0.00,VWS V13.00,2013-06-23 03:10:00,
2013-06-22 20:15:00,70.4,58.9,29.89,NE,34,0.0,0.0,67,0.00,,---,0.00,VWS V13.00,2013-06-23 03:15:00,
2013-06-22 20:20:00,69.9,57.6,29.88,NE,34,0.0,0.0,65,0.00,,---,0.00,VWS V13.00,2013-06-23 03:20:00,
2013-06-22 20:25:00,69.8,58.4,29.88,NE,34,0.0,0.0,67,0.00,,---,0.00,VWS V13.00,2013-06-23 03:25:00,
2013-06-22 20:30:00,69.4,58.8,29.88,NE,34,0.0,0.0,69,0.00,,---,0.00,VWS V13.00,2013-06-23 03:30:00,
2013-06-22 20:35:00,69.1,58.5,29.88,NE,34,0.0,0.0,69,0.00,,---,0.00,VWS V13.00,2013-06-23 03:35:00,
2013-06-22 20:40:00,68.6,58.0,29.88,NE,34,0.0,0.0,69,0.00,,---,0.00,VWS V13.00,2013-06-23 03:40:00,
2013-06-22 20:45:00,68.3,58.2,29.88,NE,34,0.0,0.0,70,0.00,,---,0.00,VWS V13.00,2013-06-23 03:45:00,
2013-06-22 20:50:00,67.9,58.5,29.88,NE,34,0.0,0.0,72,0.00,,---,0.00,VWS V13.00,2013-06-23 03:50:00,
2013-06-22 20:55:00,67.6,58.7,29.88,NE,34,0.0,0.0,73,0.00,,---,0.00,VWS V13.00,2013-06-23 03:55:00,
2013-06-22 21:00:00,67.3,58.4,29.88,NE,34,0.0,0.0,73,0.00,,---,0.00,VWS V13.00,2013-06-23 04:00:00,
2013-06-22 21:01:00,67.3,58.4,29.88,NE,34,0.0,0.0,73,0.00,,---,0.00,VWS V13.00,2013-06-23 04:01:00,
2013-06-22 21:06:00,66.9,58.3,29.88,NE,34,0.0,0.0,74,0.00,,---,0.00,VWS V13.00,2013-06-23 04:06:00,
2013-06-22 21:11:00,66.4,57.9,29.88,NE,34,0.0,0.0,74,0.00,,---,0.00,VWS V13.00,2013-06-23 04:11:00,
2013-06-22 21:16:00,66.1,58.0,29.88,NE,34,0.0,0.0,75,0.00,,---,0.00,VWS V13.00,2013-06-23 04:16:00,
2013-06-22 21:21:00,65.8,57.7,29.88,NE,34,0.0,0.0,75,0.00,,---,0.00,VWS V13.00,2013-06-23 04:21:00,
2013-06-22 21:26:00,65.5,57.4,29.88,NE,34,0.0,0.0,75,0.00,,---,0.00,VWS V13.00,2013-06-23 04:26:00,
2013-06-22 21:31:00,65.2,57.5,29.88,NE,34,0.0,0.0,76,0.00,,---,0.00,VWS V13.00,2013-06-23 04:31:00,
2013-06-22 21:36:00,65.0,57.6,29.88,NE,34,0.0,0.0,77,0.00,,---,0.00,VWS V13.00,2013-06-23 04:36:00,
2013-06-22 21:41:00,64.7,57.7,29.88,NE,34,0.0,0.0,78,0.00,,---,0.00,VWS V13.00,2013-06-23 04:41:00,
2013-06-22 21:46:00,64.3,57.3,29.88,NE,34,0.0,0.0,78,0.00,,---,0.00,VWS V13.00,2013-06-23 04:46:00,
2013-06-22 21:51:00,64.0,57.0,29.88,NE,34,0.0,0.0,78,0.00,,---,0.00,VWS V13.00,2013-06-23 04:51:00,
2013-06-22 21:56:00,63.7,56.7,29.88,NE,34,0.0,0.0,78,0.00,,---,0.00,VWS V13.00,2013-06-23 04:56:00,
2013-06-22 22:01:00,63.4,56.4,29.88,NE,34,0.0,0.0,78,0.00,,---,0.00,VWS V13.00,2013-06-23 05:01:00,
2013-06-22 22:06:00,63.1,56.1,29.88,NE,34,0.0,0.0,78,0.00,,---,0.00,VWS V13.00,2013-06-23 05:06:00,
2013-06-22 22:11:00,62.9,56.3,29.88,NE,34,0.0,0.0,79,0.00,,---,0.00,VWS V13.00,2013-06-23 05:11:00,
2013-06-22 22:16:00,62.6,56.0,29.88,NE,34,0.0,0.0,79,0.00,,---,0.00,VWS V13.00,2013-06-23 05:16:00,
2013-06-22 22:21:00,62.4,56.2,29.88,NE,34,0.0,0.0,80,0.00,,---,0.00,VWS V13.00,2013-06-23 05:21:00,
2013-06-22 22:26:00,62.3,56.4,29.88,NE,34,0.0,0.0,81,0.00,,---,0.00,VWS V13.00,2013-06-23 05:26:00,
2013-06-22 22:31:00,62.0,56.1,29.88,NE,34,0.0,0.0,81,0.00,,---,0.00,VWS V13.00,2013-06-23 05:31:00,
2013-06-22 22:36:00,61.8,55.9,29.87,NE,34,0.0,0.0,81,0.00,,---,0.00,VWS V13.00,2013-06-23 05:36:00,
2013-06-22 22:41:00,61.5,56.0,29.87,NE,34,0.0,0.0,82,0.00,,---,0.00,VWS V13.00,2013-06-23 05:41:00,
2013-06-22 22:46:00,61.3,56.1,29.87,NE,34,0.0,0.0,83,0.00,,---,0.00,VWS V13.00,2013-06-23 05:46:00,
2013-06-22 22:51:00,61.2,56.0,29.87,NE,34,0.0,0.0,83,0.00,,---,0.00,VWS V13.00,2013-06-23 05:51:00,
2013-06-22 22:56:00,61.0,56.1,29.87,NE,34,0.0,0.0,84,0.00,,---,0.00,VWS V13.00,2013-06-23 05:56:00,
2013-06-22 23:01:00,60.9,56.0,29.87,NE,34,0.0,0.0,84,0.00,,---,0.00,VWS V13.00,2013-06-23 06:01:00,
2013-06-22 23:06:00,60.7,55.8,29.87,NE,34,0.0,0.0,84,0.00,,---,0.00,VWS V13.00,2013-06-23 06:06:00,
2013-06-22 23:11:00,60.7,55.8,29.87,NE,34,0.0,0.0,84,0.00,,---,0.00,VWS V13.00,2013-06-23 06:11:00,
2013-06-22 23:16:00,60.5,55.7,29.87,NE,34,0.0,0.0,84,0.00,,---,0.00,VWS V13.00,2013-06-23 06:16:00,
2013-06-22 23:21:00,60.4,55.9,29.86,NE,34,0.0,0.0,85,0.00,,---,0.00,VWS V13.00,2013-06-23 06:21:00,
2013-06-22 23:26:00,60.4,55.9,29.86,NE,34,0.0,0.0,85,0.00,,---,0.00,VWS V13.00,2013-06-23 06:26:00,
2013-06-22 23:31:00,60.4,55.9,29.86,NE,34,0.0,0.0,85,0.00,,---,0.00,VWS V13.00,2013-06-23 06:31:00,
2013-06-22 23:36:00,60.2,55.7,29.86,NE,34,0.0,0.0,85,0.00,,---,0.00,VWS V13.00,2013-06-23 06:36:00,
2013-06-22 23:41:00,60.2,55.7,29.86,NE,34,0.0,0.0,85,0.00,,---,0.00,VWS V13.00,2013-06-23 06:41:00,
2013-06-22 23:46:00,60.2,56.0,29.86,NE,34,0.0,0.0,86,0.00,,---,0.00,VWS V13.00,2013-06-23 06:46:00,
2013-06-22 23:51:00,60.2,55.7,29.86,NE,34,0.0,0.0,85,0.00,,---,0.00,VWS V13.00,2013-06-23 06:51:00,
2013-06-22 23:56:00,60.1,55.9,29.86,NE,34,0.0,0.0,86,0.00,,---,0.00,VWS V13.00,2013-06-23 06:56:00,